Time;durP1;ratioP1;P1;durP2;ratioP2;P2;SDS_P1;SDS_P2;PMS_P1;PMS_P2;Temp;Humidity;BMP_temperature;BMP_pressure;BME280_temperature;BME280_humidity;BME280_pressure;Samples;Min_cycle;Max_cycle;Signal;HPM_P1;HPM_P2
2021/10/26 00:01:12;;;;;;;10.00;9.07;;;11.80;99.90;;;;;;5032533;28;20195;-69
2021/10/26 00:03:38;;;;;;;10.87;9.83;;;11.80;99.90;;;;;;5033008;28;20262;-69
2021/10/26 00:06:04;;;;;;;12.90;10.23;;;11.70;99.90;;;;;;5032907;28;20173;-68
2021/10/26 00:08:29;;;;;;;12.70;11.33;;;11.70;99.90;;;;;;5047740;28;20256;-68
2021/10/26 00:10:55;;;;;;;12.27;10.20;;;11.80;99.90;;;;;;5052693;28;20163;-69
2021/10/26 00:13:20;;;;;;;11.53;10.30;;;11.70;99.90;;;;;;5052755;28;20614;-68
2021/10/26 00:15:47;;;;;;;15.43;11.40;;;11.70;99.90;;;;;;5052494;28;20168;-69
2021/10/26 00:18:13;;;;;;;11.57;10.27;;;11.70;99.90;;;;;;5052259;28;20240;-68
2021/10/26 00:20:38;;;;;;;12.03;9.97;;;11.70;99.90;;;;;;5052690;28;20821;-68
2021/10/26 00:23:04;;;;;;;12.87;11.50;;;11.70;99.90;;;;;;5052580;28;20167;-70
2021/10/26 00:25:30;;;;;;;11.50;10.40;;;11.70;99.90;;;;;;5051665;28;20230;-69
2021/10/26 00:27:56;;;;;;;13.37;10.93;;;11.70;99.90;;;;;;5052496;28;20191;-68
2021/10/26 00:30:21;;;;;;;12.37;10.10;;;11.70;99.90;;;;;;5044260;28;20180;-68
2021/10/26 00:32:47;;;;;;;10.57;9.57;;;11.70;99.90;;;;;;5052328;28;20895;-69
2021/10/26 00:35:13;;;;;;;14.70;11.03;;;11.70;99.90;;;;;;5052331;28;20499;-69
2021/10/26 00:37:39;;;;;;;12.30;11.10;;;11.70;99.90;;;;;;5052236;28;20251;-69
2021/10/26 00:40:06;;;;;;;11.87;10.77;;;11.70;99.90;;;;;;5048515;28;20168;-68
2021/10/26 00:42:32;;;;;;;11.33;10.20;;;11.70;99.90;;;;;;5032806;28;20919;-68
2021/10/26 00:44:58;;;;;;;11.90;10.80;;;11.70;99.90;;;;;;5032301;28;20404;-68
2021/10/26 00:47:24;;;;;;;11.67;10.57;;;11.70;99.90;;;;;;5032436;28;20546;-69
2021/10/26 00:49:50;;;;;;;11.00;9.83;;;11.70;99.90;;;;;;5032240;28;20431;-69
2021/10/26 00:52:16;;;;;;;13.00;10.00;;;11.70;99.90;;;;;;5032117;28;20153;-69
2021/10/26 00:54:41;;;;;;;11.13;10.03;;;11.70;99.90;;;;;;5032453;28;20180;-69
2021/10/26 00:57:07;;;;;;;11.27;10.07;;;11.70;99.90;;;;;;5032102;28;20786;-68
2021/10/26 00:59:33;;;;;;;11.67;10.30;;;11.70;99.90;;;;;;5036484;28;20180;-69
2021/10/26 01:01:58;;;;;;;12.00;10.30;;;11.70;99.90;;;;;;5032158;28;20179;-69
2021/10/26 01:04:24;;;;;;;14.37;11.37;;;11.70;99.90;;;;;;5032356;28;20231;-69
2021/10/26 01:06:50;;;;;;;11.70;10.60;;;11.70;99.90;;;;;;5031837;28;20212;-68
2021/10/26 01:09:16;;;;;;;12.50;11.33;;;11.70;99.90;;;;;;5032180;28;20618;-69
2021/10/26 01:11:43;;;;;;;12.40;11.20;;;11.70;99.90;;;;;;5031976;28;20168;-69
2021/10/26 01:14:09;;;;;;;11.23;10.00;;;11.70;99.90;;;;;;5031934;28;20449;-68
2021/10/26 01:16:35;;;;;;;10.37;9.37;;;11.70;99.90;;;;;;5047714;28;20419;-69
2021/10/26 01:19:01;;;;;;;13.50;10.40;;;11.70;99.90;;;;;;5051668;28;20403;-69
2021/10/26 01:21:27;;;;;;;11.77;10.70;;;11.70;99.90;;;;;;5051905;28;20395;-68
2021/10/26 01:23:53;;;;;;;15.00;11.13;;;11.70;99.90;;;;;;5051872;28;20156;-69
2021/10/26 01:26:18;;;;;;;11.77;10.67;;;11.70;99.90;;;;;;5051645;28;20417;-70
2021/10/26 01:28:44;;;;;;;12.70;10.63;;;11.70;99.90;;;;;;5049199;28;20244;-68
2021/10/26 01:31:09;;;;;;;11.90;10.10;;;11.70;99.90;;;;;;5035565;28;20181;-68
2021/10/26 01:33:35;;;;;;;11.87;9.70;;;11.70;99.90;;;;;;5052015;28;20255;-69
2021/10/26 01:36:01;;;;;;;11.10;10.00;;;11.70;99.90;;;;;;5055978;28;20165;-69
2021/10/26 01:38:27;;;;;;;15.03;10.13;;;11.70;99.90;;;;;;5055654;28;20168;-68
2021/10/26 01:40:52;;;;;;;11.83;10.57;;;11.70;99.90;;;;;;5055417;28;20168;-69
2021/10/26 01:43:19;;;;;;;10.63;9.10;;;11.70;99.90;;;;;;5055531;28;20214;-69
2021/10/26 01:45:45;;;;;;;11.13;8.83;;;11.70;99.90;;;;;;5055475;28;20875;-68
2021/10/26 01:48:11;;;;;;;9.90;8.83;;;11.70;99.90;;;;;;5055333;28;20454;-69
2021/10/26 01:50:37;;;;;;;12.47;9.30;;;11.70;99.90;;;;;;5054608;28;20414;-68
2021/10/26 01:53:03;;;;;;;13.53;9.83;;;11.70;99.90;;;;;;5055556;28;20167;-68
2021/10/26 01:55:28;;;;;;;11.20;9.20;;;11.70;99.90;;;;;;5055432;28;20403;-69
2021/10/26 01:57:54;;;;;;;11.20;9.70;;;11.70;99.90;;;;;;5055371;28;20395;-68
2021/10/26 02:00:22;;;;;;;11.77;8.60;;;11.70;99.90;;;;;;5054234;28;20684;-69
2021/10/26 02:02:50;;;;;;;12.60;9.50;;;11.70;99.90;;;;;;5055099;28;20200;-70
2021/10/26 02:05:17;;;;;;;9.80;8.90;;;11.70;99.90;;;;;;5055344;28;20402;-69
2021/10/26 02:07:43;;;;;;;15.27;9.33;;;11.70;99.90;;;;;;5037373;28;20994;-69
2021/10/26 02:10:09;;;;;;;10.93;9.77;;;11.70;99.90;;;;;;5035087;28;20880;-69
2021/10/26 02:12:34;;;;;;;11.27;9.80;;;11.70;99.90;;;;;;5034927;28;20427;-69
2021/10/26 02:15:00;;;;;;;13.40;9.93;;;11.70;99.90;;;;;;5034993;28;20399;-68
2021/10/26 02:17:26;;;;;;;10.47;9.10;;;11.70;99.90;;;;;;5034946;28;20173;-69
2021/10/26 02:19:51;;;;;;;11.10;9.90;;;11.80;99.90;;;;;;5034914;28;20613;-68
2021/10/26 02:22:17;;;;;;;12.40;9.80;;;11.80;99.90;;;;;;5034845;28;20166;-69
2021/10/26 02:24:43;;;;;;;12.90;9.90;;;11.80;99.90;;;;;;5035412;28;20291;-71
2021/10/26 02:27:09;;;;;;;9.70;8.70;;;11.80;99.90;;;;;;5035041;28;20466;-73
2021/10/26 02:29:35;;;;;;;10.63;9.53;;;11.80;99.90;;;;;;5039266;28;20485;-73
2021/10/26 02:32:04;;;;;;;11.40;9.10;;;11.80;99.90;;;;;;5054927;28;20202;-72
2021/10/26 02:34:29;;;;;;;10.37;9.33;;;11.80;99.90;;;;;;5054531;28;20248;-79
2021/10/26 02:36:55;;;;;;;10.13;9.20;;;11.80;99.90;;;;;;5054597;28;20388;-80
2021/10/26 02:39:21;;;;;;;11.60;9.23;;;11.80;99.90;;;;;;5054069;28;20180;-80
2021/10/26 02:41:47;;;;;;;10.93;9.83;;;11.80;99.90;;;;;;5036539;28;20263;-80
2021/10/26 02:44:12;;;;;;;14.07;10.30;;;11.80;99.90;;;;;;5034509;28;20165;-80
2021/10/26 02:46:38;;;;;;;12.53;10.87;;;11.80;99.90;;;;;;5034361;28;20827;-79
2021/10/26 02:49:04;;;;;;;11.90;10.53;;;11.80;99.90;;;;;;5034442;28;20525;-79
2021/10/26 02:51:29;;;;;;;14.70;12.00;;;11.90;99.90;;;;;;5034503;28;20184;-80
2021/10/26 02:53:55;;;;;;;10.97;9.70;;;11.90;99.90;;;;;;5034420;28;20171;-80
2021/10/26 02:56:20;;;;;;;15.27;10.27;;;11.90;99.90;;;;;;5034258;28;20607;-80
2021/10/26 02:58:46;;;;;;;12.67;10.60;;;11.90;99.90;;;;;;5034734;28;20548;-81
2021/10/26 03:01:12;;;;;;;11.50;10.37;;;11.90;99.90;;;;;;5034224;28;20657;-81
2021/10/26 03:03:38;;;;;;;12.30;10.93;;;11.90;99.90;;;;;;5034218;28;20669;-82
2021/10/26 03:06:04;;;;;;;14.10;10.93;;;11.90;99.90;;;;;;5034325;28;20928;-80
2021/10/26 03:08:30;;;;;;;13.10;10.47;;;11.90;99.90;;;;;;5033911;28;21014;-80
2021/10/26 03:10:56;;;;;;;12.00;10.70;;;11.90;99.90;;;;;;5034099;28;20423;-81
2021/10/26 03:13:22;;;;;;;14.87;11.17;;;11.90;99.90;;;;;;5033871;28;20575;-81
2021/10/26 03:15:48;;;;;;;12.10;10.80;;;11.90;99.90;;;;;;5034336;28;20563;-81
2021/10/26 03:18:13;;;;;;;12.27;10.97;;;11.90;99.90;;;;;;5034217;28;20400;-75
2021/10/26 03:20:40;;;;;;;12.47;10.43;;;11.90;99.90;;;;;;5033927;28;20158;-81
2021/10/26 03:23:06;;;;;;;11.77;10.20;;;11.90;99.90;;;;;;5033886;28;20644;-82
2021/10/26 03:25:31;;;;;;;14.40;11.30;;;11.90;99.90;;;;;;5033717;28;20391;-81
2021/10/26 03:27:57;;;;;;;15.17;11.80;;;11.90;99.90;;;;;;5033740;28;20447;-79
2021/10/26 03:30:23;;;;;;;16.47;11.67;;;11.90;99.90;;;;;;5036159;28;20173;-78
2021/10/26 03:32:48;;;;;;;13.00;11.53;;;11.90;99.90;;;;;;5051564;28;20183;-81
2021/10/26 03:35:14;;;;;;;17.43;12.33;;;11.90;99.90;;;;;;5053489;28;20168;-77
2021/10/26 03:37:41;;;;;;;12.57;11.37;;;11.90;99.90;;;;;;5053319;28;20673;-81
2021/10/26 03:40:09;;;;;;;13.00;11.70;;;11.90;99.90;;;;;;5053565;28;20177;-82
2021/10/26 03:42:35;;;;;;;14.20;11.80;;;11.90;99.90;;;;;;5053301;28;20856;-81
2021/10/26 03:45:01;;;;;;;15.07;11.80;;;11.90;99.90;;;;;;5053220;28;20802;-81
2021/10/26 03:47:26;;;;;;;16.97;12.40;;;11.90;99.90;;;;;;5053461;28;20446;-81
2021/10/26 03:49:52;;;;;;;16.20;13.27;;;11.90;99.90;;;;;;5034455;28;20607;-81
2021/10/26 03:52:17;;;;;;;15.23;13.07;;;11.90;99.90;;;;;;5032366;28;20166;-81
2021/10/26 03:54:43;;;;;;;14.33;12.87;;;11.90;99.90;;;;;;5033221;28;20153;-81
2021/10/26 03:57:11;;;;;;;15.83;13.20;;;11.90;99.90;;;;;;5033150;28;20169;-82
2021/10/26 03:59:38;;;;;;;14.67;13.20;;;11.90;99.90;;;;;;5036034;28;20216;-81
2021/10/26 04:02:09;;;;;;;17.77;15.17;;;11.90;99.90;;;;;;5033209;28;20438;-81
2021/10/26 04:04:35;;;;;;;17.60;14.47;;;11.90;99.90;;;;;;5032896;28;20395;-80
2021/10/26 04:07:03;;;;;;;16.80;14.90;;;11.90;99.90;;;;;;5052080;28;20470;-80
2021/10/26 04:09:44;;;;;;;15.87;14.27;;;11.90;99.90;;;;;;5043210;28;20427;-81
2021/10/26 04:12:27;;;;;;;15.83;14.33;;;11.90;99.90;;;;;;5034472;28;20434;-81
2021/10/26 04:14:56;;;;;;;18.13;15.00;;;11.90;99.90;;;;;;5032929;28;20396;-80
2021/10/26 04:17:24;;;;;;;17.07;13.60;;;11.90;99.90;;;;;;5032783;28;20400;-80
2021/10/26 04:19:51;;;;;;;16.00;14.30;;;11.90;99.90;;;;;;5032639;28;20868;-82
2021/10/26 04:22:20;;;;;;;18.13;14.30;;;11.90;99.90;;;;;;5035267;28;20442;-79
2021/10/26 04:24:46;;;;;;;18.50;13.97;;;11.90;99.90;;;;;;5032608;28;20419;-80
2021/10/26 04:27:12;;;;;;;15.47;13.57;;;11.90;99.90;;;;;;5032489;28;20447;-81
2021/10/26 04:29:38;;;;;;;16.93;13.80;;;11.90;99.90;;;;;;5041717;28;20183;-81
2021/10/26 04:32:07;;;;;;;17.30;14.10;;;11.90;99.90;;;;;;5035644;28;20484;-80
2021/10/26 04:34:33;;;;;;;17.83;14.67;;;11.90;99.90;;;;;;5043577;28;20438;-82
2021/10/26 04:36:58;;;;;;;16.20;14.57;;;11.90;99.90;;;;;;5052681;28;20877;-81
2021/10/26 04:39:24;;;;;;;17.43;15.60;;;11.90;99.90;;;;;;5044280;28;20219;-81
2021/10/26 04:41:50;;;;;;;23.03;15.80;;;11.90;99.90;;;;;;5045614;28;20208;-81
2021/10/26 04:44:16;;;;;;;15.53;13.73;;;11.90;99.90;;;;;;5042570;28;20288;-80
2021/10/26 04:46:41;;;;;;;16.40;14.80;;;11.90;99.90;;;;;;5039288;28;20180;-79
2021/10/26 04:49:07;;;;;;;18.80;15.77;;;11.90;99.90;;;;;;5049140;28;20433;-80
2021/10/26 04:51:33;;;;;;;17.97;16.17;;;11.90;99.90;;;;;;5045570;28;20184;-80
2021/10/26 04:53:58;;;;;;;18.97;15.10;;;11.90;99.90;;;;;;5041372;28;20184;-80
2021/10/26 04:56:24;;;;;;;14.90;13.10;;;12.00;99.90;;;;;;5041217;28;20231;-81
2021/10/26 04:58:49;;;;;;;19.03;13.30;;;12.00;99.90;;;;;;5032139;28;20219;-82
2021/10/26 05:01:15;;;;;;;20.37;14.00;;;12.00;99.90;;;;;;5032209;28;20491;-76
2021/10/26 05:03:42;;;;;;;14.83;12.47;;;12.00;99.90;;;;;;5050679;28;20176;-80
2021/10/26 05:06:08;;;;;;;16.87;12.30;;;12.00;99.90;;;;;;5045218;28;20233;-80
2021/10/26 05:08:33;;;;;;;14.37;12.60;;;12.00;99.90;;;;;;5051757;28;20570;-78
2021/10/26 05:11:00;;;;;;;14.23;12.00;;;12.00;99.90;;;;;;5046255;28;20176;-79
2021/10/26 05:13:29;;;;;;;15.87;13.27;;;12.00;99.90;;;;;;5034029;28;20188;-81
2021/10/26 05:15:56;;;;;;;18.53;13.10;;;12.00;99.90;;;;;;5034879;28;20435;-79
2021/10/26 05:18:22;;;;;;;12.57;11.07;;;12.00;99.90;;;;;;5039373;28;20439;-80
2021/10/26 05:20:48;;;;;;;16.10;11.83;;;12.10;99.90;;;;;;5031707;28;20491;-80
2021/10/26 05:23:14;;;;;;;15.50;12.50;;;12.10;99.90;;;;;;5032023;28;20415;-80
2021/10/26 05:25:40;;;;;;;16.70;12.80;;;12.10;99.90;;;;;;5034775;28;20435;-80
2021/10/26 05:28:09;;;;;;;13.57;12.00;;;12.10;99.90;;;;;;5038189;28;20196;-78
2021/10/26 05:30:35;;;;;;;13.80;11.97;;;12.10;99.90;;;;;;5034332;28;20525;-80
2021/10/26 05:33:01;;;;;;;12.30;11.10;;;12.10;99.90;;;;;;5038214;28;20507;-81
2021/10/26 05:35:26;;;;;;;13.10;11.80;;;12.10;99.90;;;;;;5031637;28;20192;-82
2021/10/26 05:37:52;;;;;;;16.30;13.03;;;12.10;99.90;;;;;;5037181;28;20176;-82
2021/10/26 05:40:18;;;;;;;15.57;12.33;;;12.10;99.90;;;;;;5050548;28;20191;-80
2021/10/26 05:42:44;;;;;;;16.73;12.27;;;12.10;99.90;;;;;;5031518;28;20561;-82
2021/10/26 05:45:09;;;;;;;14.90;10.37;;;12.10;99.90;;;;;;5041239;28;20436;-76
2021/10/26 05:47:35;;;;;;;14.40;11.17;;;12.10;99.90;;;;;;5044964;28;20212;-79
2021/10/26 05:50:00;;;;;;;13.60;11.60;;;12.10;99.90;;;;;;5034963;28;20494;-81
2021/10/26 05:52:26;;;;;;;14.30;10.80;;;12.10;99.90;;;;;;5042389;28;20192;-81
2021/10/26 05:54:52;;;;;;;14.00;11.43;;;12.10;99.90;;;;;;5035996;28;20178;-81
2021/10/26 05:57:17;;;;;;;12.50;10.70;;;12.10;99.90;;;;;;5037457;28;20268;-78
2021/10/26 05:59:44;;;;;;;16.17;11.83;;;12.20;99.90;;;;;;5041299;28;20242;-81
2021/10/26 06:02:09;;;;;;;15.53;11.90;;;12.20;99.90;;;;;;5042710;28;20191;-80
2021/10/26 06:04:35;;;;;;;14.17;11.80;;;12.20;99.90;;;;;;5041716;28;20944;-72
2021/10/26 06:07:01;;;;;;;15.63;11.50;;;12.20;99.90;;;;;;5027452;28;20466;-81
2021/10/26 06:09:30;;;;;;;13.40;11.43;;;12.10;99.90;;;;;;5032642;28;20215;-74
2021/10/26 06:11:57;;;;;;;12.90;10.20;;;12.10;99.90;;;;;;5032960;28;20594;-78
2021/10/26 06:14:22;;;;;;;16.60;11.27;;;12.10;99.90;;;;;;5035623;28;20448;-79
2021/10/26 06:16:48;;;;;;;18.20;11.07;;;12.10;99.90;;;;;;5042148;28;20505;-80
2021/10/26 06:19:14;;;;;;;11.80;10.60;;;12.10;99.90;;;;;;5037432;28;20181;-79
2021/10/26 06:21:40;;;;;;;16.93;11.73;;;12.10;99.90;;;;;;5045227;28;20461;-79
2021/10/26 06:24:05;;;;;;;12.13;10.80;;;12.10;99.90;;;;;;5038294;28;20218;-79
2021/10/26 06:26:32;;;;;;;14.73;10.13;;;12.20;99.90;;;;;;5032727;28;20262;-78
2021/10/26 06:28:58;;;;;;;14.77;11.30;;;12.20;99.90;;;;;;5049082;28;20198;-77
2021/10/26 06:31:23;;;;;;;11.00;9.60;;;12.20;99.90;;;;;;5038301;28;20428;-79
2021/10/26 06:33:49;;;;;;;13.13;10.10;;;12.20;99.90;;;;;;5034971;28;20189;-79
2021/10/26 06:36:15;;;;;;;12.80;11.50;;;12.20;99.90;;;;;;5034892;28;20176;-75
2021/10/26 06:38:40;;;;;;;14.03;10.20;;;12.20;99.90;;;;;;5033707;28;20550;-80
2021/10/26 06:41:06;;;;;;;14.30;12.83;;;12.20;99.90;;;;;;5038989;28;20645;-79
2021/10/26 06:43:33;;;;;;;13.43;10.20;;;12.20;99.90;;;;;;5042752;28;20233;-76
2021/10/26 06:45:59;;;;;;;12.20;10.10;;;12.30;99.90;;;;;;5047718;28;20189;-79
2021/10/26 06:48:25;;;;;;;10.97;9.83;;;12.30;99.90;;;;;;5040442;28;20459;-78
2021/10/26 06:50:51;;;;;;;15.83;10.80;;;12.30;99.90;;;;;;5034681;28;20584;-76
2021/10/26 06:53:17;;;;;;;12.17;9.87;;;12.30;99.90;;;;;;5040442;28;20438;-79
2021/10/26 06:55:44;;;;;;;12.73;10.67;;;12.30;99.90;;;;;;5044777;28;20275;-79
2021/10/26 06:58:09;;;;;;;12.70;9.93;;;12.30;99.90;;;;;;5037417;28;20502;-78
2021/10/26 07:00:35;;;;;;;12.40;10.40;;;12.30;99.90;;;;;;5038224;28;20770;-79
2021/10/26 07:03:03;;;;;;;12.23;9.80;;;12.30;99.90;;;;;;5039619;28;20273;-79
2021/10/26 07:05:30;;;;;;;11.07;9.83;;;12.30;99.90;;;;;;5037865;28;20231;-79
2021/10/26 07:07:55;;;;;;;11.00;10.00;;;12.30;99.90;;;;;;5041095;28;21123;-79
2021/10/26 07:10:22;;;;;;;11.43;10.20;;;12.30;99.90;;;;;;5037316;28;20438;-79
2021/10/26 07:12:48;;;;;;;11.53;9.37;;;12.30;99.90;;;;;;5039552;28;20550;-79
2021/10/26 07:15:14;;;;;;;13.03;10.37;;;12.30;99.90;;;;;;5045027;28;20463;-79
2021/10/26 07:17:40;;;;;;;10.70;9.60;;;12.30;99.90;;;;;;5035568;28;20187;-79
2021/10/26 07:20:09;;;;;;;14.47;10.40;;;12.30;99.90;;;;;;5037868;28;20882;-73
2021/10/26 07:22:36;;;;;;;15.63;10.50;;;12.30;99.90;;;;;;5043334;28;20778;-79
2021/10/26 07:25:08;;;;;;;15.20;10.97;;;12.30;99.90;;;;;;5040206;28;20966;-78
2021/10/26 07:27:35;;;;;;;14.93;10.23;;;12.40;99.90;;;;;;5034780;28;20455;-79
2021/10/26 07:30:01;;;;;;;14.60;9.67;;;12.40;99.90;;;;;;5036323;28;20431;-79
2021/10/26 07:32:27;;;;;;;11.00;9.00;;;12.40;99.90;;;;;;5029913;28;20444;-78
2021/10/26 07:34:52;;;;;;;12.57;9.63;;;12.40;99.90;;;;;;5037796;28;20268;-79
2021/10/26 07:37:23;;;;;;;12.57;9.00;;;12.50;99.90;;;;;;5038595;28;20181;-79
2021/10/26 07:39:51;;;;;;;10.00;8.83;;;12.50;99.90;;;;;;5041684;28;20661;-79
2021/10/26 07:42:18;;;;;;;11.77;10.03;;;12.50;99.90;;;;;;5037162;28;20594;-77
2021/10/26 07:44:47;;;;;;;15.00;9.10;;;12.50;99.90;;;;;;5036226;28;20778;-79
2021/10/26 07:47:16;;;;;;;12.60;9.23;;;12.50;99.90;;;;;;5037418;28;20466;-80
2021/10/26 07:49:44;;;;;;;11.77;8.90;;;12.60;99.90;;;;;;5038607;28;20442;-79
2021/10/26 07:52:10;;;;;;;11.53;8.97;;;12.60;99.90;;;;;;5036160;28;20439;-81
2021/10/26 07:54:37;;;;;;;15.13;8.70;;;12.50;99.90;;;;;;5033728;28;20439;-75
2021/10/26 07:57:03;;;;;;;12.13;9.20;;;12.50;99.90;;;;;;5034096;28;20527;-77
2021/10/26 07:59:29;;;;;;;16.43;9.33;;;12.50;99.90;;;;;;5041614;28;20611;-81
2021/10/26 08:01:54;;;;;;;16.37;10.23;;;12.60;99.90;;;;;;5039189;28;20479;-80
2021/10/26 08:04:20;;;;;;;17.07;8.67;;;12.60;99.90;;;;;;5037024;28;20711;-80
2021/10/26 08:06:46;;;;;;;12.30;9.37;;;12.60;99.90;;;;;;5046397;28;20203;-80
2021/10/26 08:09:13;;;;;;;13.00;10.63;;;12.70;99.90;;;;;;5035555;28;20223;-80
2021/10/26 08:11:39;;;;;;;12.27;9.17;;;12.70;99.90;;;;;;5036335;28;20796;-81
2021/10/26 08:14:10;;;;;;;13.77;11.07;;;12.70;99.90;;;;;;5043405;28;20446;-78
2021/10/26 08:16:40;;;;;;;12.80;9.60;;;12.70;99.90;;;;;;5037270;28;20219;-79
2021/10/26 08:19:06;;;;;;;11.30;9.80;;;12.70;99.90;;;;;;5047000;28;20443;-81
2021/10/26 08:21:32;;;;;;;14.47;10.47;;;12.80;99.90;;;;;;5037940;28;20530;-78
2021/10/26 08:24:00;;;;;;;11.50;9.03;;;12.80;99.90;;;;;;5035475;28;20865;-81
2021/10/26 08:26:32;;;;;;;15.30;10.57;;;12.80;99.90;;;;;;5041921;28;20443;-80
2021/10/26 08:29:07;;;;;;;15.50;11.03;;;12.90;99.90;;;;;;5031751;28;20467;-74
2021/10/26 08:31:42;;;;;;;11.03;9.93;;;13.00;99.90;;;;;;5036177;28;20548;-79
2021/10/26 08:34:42;;;;;;;12.17;8.87;;;13.00;99.90;;;;;;5034565;28;20756;-81
2021/10/26 08:36:53;;;;;;;10.53;8.47;;;13.10;99.90;;;;;;5033294;28;20435;-80
2021/10/26 08:39:19;;;;;;;10.33;8.90;;;13.10;99.90;;;;;;5047656;28;20770;-78
2021/10/26 08:41:46;;;;;;;13.23;8.90;;;13.20;99.90;;;;;;5051974;28;20207;-81
2021/10/26 08:44:16;;;;;;;16.03;9.83;;;13.20;99.90;;;;;;5051313;28;20195;-79
2021/10/26 08:46:44;;;;;;;11.60;9.40;;;13.20;99.90;;;;;;5037507;28;20497;-80
2021/10/26 08:49:13;;;;;;;9.30;7.63;;;13.20;99.90;;;;;;5031889;28;20508;-81
2021/10/26 08:51:43;;;;;;;11.60;8.57;;;13.20;99.90;;;;;;5042602;28;20438;-79
2021/10/26 08:54:10;;;;;;;14.77;8.00;;;13.20;99.90;;;;;;5035322;28;20420;-81
2021/10/26 08:56:36;;;;;;;11.23;7.07;;;13.20;99.90;;;;;;5037832;28;20522;-79
2021/10/26 08:59:02;;;;;;;13.77;8.80;;;13.20;99.90;;;;;;5035769;28;20854;-76
2021/10/26 09:01:29;;;;;;;9.80;6.97;;;13.30;99.90;;;;;;5033909;28;20187;-81
2021/10/26 09:04:07;;;;;;;12.23;7.10;;;13.30;99.90;;;;;;5041560;28;20792;-81
2021/10/26 09:06:45;;;;;;;15.83;6.23;;;13.30;99.90;;;;;;5032324;28;20483;-81
2021/10/26 09:09:15;;;;;;;10.60;7.70;;;13.30;99.90;;;;;;5031372;28;20987;-79
2021/10/26 09:16:40;;;;;;;10.83;6.60;;;13.30;99.90;;;;;;5037448;28;20419;-80
2021/10/26 09:17:26;;;;;;;12.40;7.40;;;13.30;99.90;;;;;;5037269;28;20494;-80
2021/10/26 09:19:55;;;;;;;10.20;7.43;;;13.40;99.90;;;;;;5030374;28;20444;-81
2021/10/26 09:22:26;;;;;;;10.47;6.17;;;13.40;99.90;;;;;;5031117;28;20444;-76
2021/10/26 09:24:58;;;;;;;9.40;5.80;;;13.40;99.90;;;;;;5040249;28;20484;-79
2021/10/26 09:27:25;;;;;;;11.17;6.97;;;13.50;99.90;;;;;;5037381;28;20449;-80
2021/10/26 09:29:54;;;;;;;12.20;6.57;;;13.50;99.90;;;;;;5031017;28;20485;-80
2021/10/26 09:32:24;;;;;;;10.10;5.90;;;13.50;99.90;;;;;;5032689;28;20439;-80
2021/10/26 09:34:55;;;;;;;10.87;7.10;;;13.50;99.90;;;;;;5034337;28;20519;-80
2021/10/26 09:37:22;;;;;;;7.40;6.17;;;13.60;99.90;;;;;;5035625;28;20963;-81
2021/10/26 09:39:57;;;;;;;9.57;6.23;;;13.70;99.90;;;;;;5038502;28;20476;-75
2021/10/26 09:42:24;;;;;;;11.27;5.90;;;13.80;99.90;;;;;;5032412;28;20454;-79
2021/10/26 09:44:53;;;;;;;6.70;4.67;;;13.90;99.90;;;;;;5034723;28;20436;-81
2021/10/26 09:47:24;;;;;;;11.27;4.73;;;13.90;99.90;;;;;;5045074;28;20467;-80
2021/10/26 09:49:52;;;;;;;5.53;4.80;;;13.90;99.90;;;;;;5039836;28;20793;-79
2021/10/26 09:52:27;;;;;;;9.93;4.40;;;14.00;99.90;;;;;;5040142;28;20819;-81
2021/10/26 09:58:01;;;;;;;6.87;5.43;;;14.00;99.90;;;;;;5074707;28;20630;-71
2021/10/26 10:00:33;;;;;;;8.80;5.57;;;14.20;99.90;;;;;;5061570;28;20488;-72
2021/10/26 10:03:23;;;;;;;7.00;4.27;;;14.30;99.90;;;;;;5064309;28;20936;-71
2021/10/26 10:05:58;;;;;;;6.07;4.10;;;14.30;99.90;;;;;;5065273;28;20790;-71
2021/10/26 10:08:28;;;;;;;10.90;5.40;;;14.40;99.90;;;;;;5062022;28;20443;-71
2021/10/26 10:11:17;;;;;;;7.73;3.60;;;14.50;99.90;;;;;;5065844;28;20862;-71
2021/10/26 10:13:44;;;;;;;9.47;3.87;;;14.50;99.90;;;;;;5058535;28;20448;-71
2021/10/26 10:16:13;;;;;;;7.10;5.20;;;14.60;99.90;;;;;;5064400;28;20456;-71
2021/10/26 10:18:41;;;;;;;13.77;4.40;;;14.60;99.90;;;;;;5061305;28;20449;-72
2021/10/26 10:21:10;;;;;;;6.80;5.07;;;14.70;99.90;;;;;;5060895;28;21079;-72
2021/10/26 10:23:39;;;;;;;8.10;5.57;;;14.70;99.90;;;;;;5071787;28;20526;-72
2021/10/26 10:26:05;;;;;;;9.17;5.40;;;14.70;99.90;;;;;;5063973;28;20425;-72
2021/10/26 10:28:33;;;;;;;7.30;5.90;;;14.60;99.90;;;;;;5065706;28;20432;-71
2021/10/26 10:31:02;;;;;;;8.43;5.53;;;14.70;99.90;;;;;;5060521;28;20453;-71
2021/10/26 10:33:28;;;;;;;8.17;5.80;;;14.70;99.90;;;;;;5065655;28;20909;-71
2021/10/26 10:35:58;;;;;;;11.23;5.60;;;14.80;99.90;;;;;;5061488;28;20453;-72
2021/10/26 10:38:27;;;;;;;7.20;5.63;;;14.80;99.90;;;;;;5065371;28;20417;-72
2021/10/26 10:41:32;;;;;;;10.80;6.00;;;14.70;99.90;;;;;;5057873;28;20417;-72
2021/10/26 10:44:01;;;;;;;8.03;6.03;;;14.60;99.90;;;;;;5062847;28;21014;-72
2021/10/26 10:46:49;;;;;;;8.10;6.43;;;14.70;99.90;;;;;;5059686;28;20421;-73
2021/10/26 10:52:02;;;;;;;8.83;6.17;;;14.70;99.90;;;;;;5053186;28;20649;-74
2021/10/26 10:54:55;;;;;;;11.20;5.50;;;14.80;99.90;;;;;;5033294;28;20430;-73
2021/10/26 11:00:03;;;;;;;12.80;5.63;;;14.90;99.90;;;;;;5075106;27;20664;-73
2021/10/26 11:02:46;;;;;;;7.80;5.10;;;14.90;99.90;;;;;;5073957;28;20499;-73
2021/10/26 11:08:12;;;;;;;10.43;4.87;;;14.90;99.90;;;;;;5070180;28;20661;-74
2021/10/26 11:13:26;;;;;;;6.40;5.00;;;14.90;99.90;;;;;;5044698;28;20772;-72
2021/10/26 11:15:53;;;;;;;8.40;4.83;;;15.00;99.90;;;;;;5039818;28;20424;-71
2021/10/26 11:18:44;;;;;;;8.40;4.93;;;15.00;99.90;;;;;;5047158;28;20833;-72
2021/10/26 11:24:08;;;;;;;6.63;4.10;;;14.90;99.90;;;;;;5041702;28;21168;-72
2021/10/26 11:29:13;;;;;;;5.37;3.80;;;14.80;99.90;;;;;;5060002;28;20649;-71
2021/10/26 11:31:45;;;;;;;8.73;4.20;;;14.80;99.90;;;;;;5045004;28;20453;-71
2021/10/26 11:34:20;;;;;;;6.93;3.73;;;14.70;99.90;;;;;;5050253;28;20439;-71
2021/10/26 11:37:02;;;;;;;10.80;4.87;;;14.70;99.90;;;;;;5052712;28;21003;-71
2021/10/26 11:39:28;;;;;;;16.33;5.17;;;14.60;99.90;;;;;;5048126;28;20522;-71
2021/10/26 11:41:57;;;;;;;4.67;3.73;;;14.60;99.90;;;;;;5045018;28;20537;-71
2021/10/26 11:44:23;;;;;;;7.10;3.80;;;14.60;99.90;;;;;;5046597;28;20172;-71
2021/10/26 11:46:50;;;;;;;6.93;3.50;;;14.60;99.90;;;;;;5048561;28;20433;-71
2021/10/26 11:51:57;;;;;;;11.67;5.53;;;14.70;99.90;;;;;;5063341;28;20664;-72
2021/10/26 11:54:40;;;;;;;7.27;4.80;;;14.70;99.90;;;;;;5049472;28;20425;-71
2021/10/26 11:57:11;;;;;;;8.30;5.10;;;14.70;99.90;;;;;;5044403;28;20441;-71
2021/10/26 11:59:39;;;;;;;6.60;3.30;;;14.70;99.90;;;;;;5042515;28;20839;-71
2021/10/26 12:07:27;;;;;;;7.93;3.50;;;14.70;99.90;;;;;;5055137;28;20671;-73
2021/10/26 12:09:56;;;;;;;11.20;4.53;;;14.80;99.90;;;;;;5032047;28;20426;-72
2021/10/26 12:17:40;;;;;;;5.83;3.27;;;14.90;99.90;;;;;;5045398;28;20985;-71
2021/10/26 12:20:23;;;;;;;10.67;3.57;;;15.00;99.90;;;;;;5042656;28;21260;-72
2021/10/26 12:22:54;;;;;;;12.37;5.00;;;15.00;99.90;;;;;;5045666;28;20432;-72
2021/10/26 12:25:24;;;;;;;12.63;3.47;;;15.10;99.90;;;;;;5043965;28;20479;-71
2021/10/26 12:33:06;;;;;;;5.00;3.17;;;15.20;99.90;;;;;;5064060;28;20532;-73
2021/10/26 12:35:44;;;;;;;8.47;4.00;;;15.30;99.90;;;;;;5055386;28;20846;-73
2021/10/26 12:40:57;;;;;;;10.00;3.37;;;15.30;99.90;;;;;;5060094;28;20651;-72
2021/10/26 12:43:27;;;;;;;5.90;3.17;;;15.30;99.90;;;;;;5038724;28;20522;-71
2021/10/26 12:45:56;;;;;;;4.47;3.17;;;15.30;99.90;;;;;;5039731;28;20493;-71
2021/10/26 12:48:23;;;;;;;7.30;3.70;;;15.20;99.90;;;;;;5039762;28;20463;-71
2021/10/26 12:56:26;;;;;;;5.13;3.40;;;15.20;99.90;;;;;;5056331;28;20549;-72
2021/10/26 13:01:34;;;;;;;14.13;5.30;;;15.10;99.90;;;;;;5086896;27;20568;-73
2021/10/26 13:06:46;;;;;;;5.57;4.30;;;15.00;99.90;;;;;;5063645;27;20532;-72
2021/10/26 13:15:06;;;;;;;6.73;3.50;;;15.10;99.90;;;;;;5133979;27;21018;-72
2021/10/26 13:17:36;;;;;;;4.50;4.00;;;15.10;99.90;;;;;;5124453;28;20771;-72
2021/10/26 13:25:47;;;;;;;5.20;3.03;;;15.10;99.90;;;;;;5055499;28;20545;-72
2021/10/26 13:28:16;;;;;;;7.13;2.87;;;15.10;99.90;;;;;;5036589;28;20441;-72
2021/10/26 13:30:56;;;;;;;9.23;3.00;;;15.10;99.90;;;;;;5043165;28;20533;-71
2021/10/26 13:33:23;;;;;;;5.80;2.77;;;15.10;99.90;;;;;;5039784;28;21755;-72
2021/10/26 13:35:49;;;;;;;8.17;3.70;;;15.10;99.90;;;;;;5048162;28;20438;-72
2021/10/26 13:38:17;;;;;;;5.40;3.10;;;15.10;99.90;;;;;;5043077;28;20921;-72
2021/10/26 13:40:44;;;;;;;7.33;3.57;;;15.10;99.90;;;;;;5044695;28;20523;-73
2021/10/26 13:43:10;;;;;;;4.40;3.10;;;15.10;99.90;;;;;;5045537;28;20778;-71